Time;durP1;ratioP1;P1;durP2;ratioP2;P2;SDS_P1;SDS_P2;PMS_P1;PMS_P2;Temp;Humidity;BMP_temperature;BMP_pressure;BME280_temperature;BME280_humidity;BME280_pressure;Samples;Min_cycle;Max_cycle;Signal;HPM_P1;HPM_P2
2022/12/19 00:01:15;;;;;;;0.63;0.63;;;1.20;52.10;;;;;;5038860;28;20551;-81
2022/12/19 00:03:46;;;;;;;5.18;0.77;;;1.20;53.00;;;;;;5055673;28;20168;-80
2022/12/19 00:06:12;;;;;;;4.25;1.40;;;1.30;54.60;;;;;;5072465;28;20067;-80
2022/12/19 00:08:43;;;;;;;1.55;0.50;;;1.30;55.50;;;;;;5072029;28;20040;-80
2022/12/19 00:11:11;;;;;;;4.03;0.75;;;1.30;58.20;;;;;;5071969;28;20448;-80
2022/12/19 00:13:37;;;;;;;0.38;0.38;;;1.20;57.60;;;;;;5072084;28;20127;-81
2022/12/19 00:16:06;;;;;;;5.40;1.17;;;1.30;57.10;;;;;;5055368;28;20515;-81
2022/12/19 00:18:32;;;;;;;3.83;2.03;;;1.30;56.10;;;;;;5055337;28;20048;-81
2022/12/19 00:21:03;;;;;;;1.13;1.13;;;1.40;58.20;;;;;;5055493;28;20052;-81
2022/12/19 00:23:31;;;;;;;1.35;0.40;;;1.30;59.30;;;;;;5055340;28;20131;-81
2022/12/19 00:26:26;;;;;;;0.57;0.55;;;1.30;58.20;;;;;;5071466;28;20435;-81
2022/12/19 00:28:54;;;;;;;1.55;1.45;;;1.30;61.20;;;;;;5054889;28;20142;-81
2022/12/19 00:31:21;;;;;;;1.13;1.13;;;1.30;60.40;;;;;;5072266;28;20496;-80
2022/12/19 00:33:47;;;;;;;0.00;0.00;;;1.40;61.70;;;;;;5071536;28;20063;-81
2022/12/19 00:36:18;;;;;;;1.30;0.73;;;1.40;62.80;;;;;;5071758;28;20063;-81
2022/12/19 00:38:45;;;;;;;1.15;1.08;;;1.40;59.10;;;;;;5072134;28;20048;-81
2022/12/19 00:41:15;;;;;;;1.17;1.02;;;1.40;60.40;;;;;;5074257;28;20480;-81
2022/12/19 00:43:42;;;;;;;0.88;0.75;;;1.40;61.10;;;;;;5075787;28;20056;-81
2022/12/19 00:46:11;;;;;;;1.30;0.73;;;1.40;63.20;;;;;;5075636;28;20044;-81
2022/12/19 00:48:37;;;;;;;1.20;1.17;;;1.50;62.00;;;;;;5075383;28;20044;-81
2022/12/19 00:51:05;;;;;;;0.63;0.63;;;1.50;63.00;;;;;;5059029;28;20040;-81
2022/12/19 00:53:32;;;;;;;0.63;0.52;;;1.50;59.60;;;;;;5058572;28;20041;-81
2022/12/19 00:56:07;;;;;;;0.57;0.57;;;1.50;60.60;;;;;;5058236;28;20052;-81
2022/12/19 00:58:33;;;;;;;0.08;0.08;;;1.50;60.90;;;;;;5058556;28;20139;-81
2022/12/19 01:01:08;;;;;;;3.55;1.60;;;1.60;61.50;;;;;;5025319;28;20079;-81
2022/12/19 01:03:34;;;;;;;1.20;0.80;;;1.60;62.40;;;;;;5059184;28;20049;-81
2022/12/19 01:06:00;;;;;;;1.38;1.27;;;1.60;62.40;;;;;;5075144;28;20492;-81
2022/12/19 01:08:25;;;;;;;0.43;0.43;;;1.70;63.80;;;;;;5075436;28;20045;-81
2022/12/19 01:10:51;;;;;;;0.90;0.90;;;1.60;63.50;;;;;;5041532;28;20048;-81
2022/12/19 01:13:20;;;;;;;1.85;1.10;;;1.70;62.80;;;;;;5075043;28;20044;-81
2022/12/19 01:15:45;;;;;;;0.10;0.10;;;1.70;67.10;;;;;;5074759;28;20059;-81
2022/12/19 01:18:11;;;;;;;0.63;0.57;;;1.70;64.40;;;;;;5058416;28;20385;-81
2022/12/19 01:20:39;;;;;;;2.28;0.60;;;1.70;66.80;;;;;;5058251;28;20056;-80
2022/12/19 01:23:05;;;;;;;0.77;0.65;;;1.70;65.80;;;;;;5058241;28;20392;-80
2022/12/19 01:25:33;;;;;;;0.40;0.40;;;1.70;69.00;;;;;;5057322;28;20051;-81
2022/12/19 01:27:58;;;;;;;1.80;1.70;;;1.70;70.80;;;;;;5074756;28;20056;-80
2022/12/19 01:30:25;;;;;;;3.25;1.02;;;1.80;67.60;;;;;;5040848;28;20051;-80
2022/12/19 01:32:51;;;;;;;0.40;0.40;;;1.90;70.10;;;;;;5057898;28;20048;-81
2022/12/19 01:35:17;;;;;;;0.38;0.35;;;1.80;71.40;;;;;;5057956;28;20055;-80
2022/12/19 01:37:43;;;;;;;1.75;1.65;;;1.80;71.30;;;;;;5041263;28;20553;-80
2022/12/19 01:40:11;;;;;;;2.22;0.52;;;1.90;76.20;;;;;;5057744;28;20044;-81
2022/12/19 01:42:37;;;;;;;1.23;1.13;;;1.90;78.60;;;;;;5057973;28;20060;-81
2022/12/19 01:45:07;;;;;;;0.17;0.17;;;1.90;79.10;;;;;;5057705;28;20484;-81
2022/12/19 01:47:58;;;;;;;0.80;0.80;;;1.80;79.10;;;;;;5074357;28;20131;-81
2022/12/19 01:50:38;;;;;;;0.00;0.00;;;1.90;78.80;;;;;;5063571;28;20060;-80
2022/12/19 01:53:08;;;;;;;0.98;0.85;;;1.90;78.50;;;;;;5057713;28;20044;-80
2022/12/19 01:55:36;;;;;;;0.63;0.45;;;2.00;81.60;;;;;;5056620;28;20154;-80
2022/12/19 01:58:02;;;;;;;0.15;0.10;;;2.00;80.50;;;;;;5074148;28;20055;-81
2022/12/19 02:00:27;;;;;;;0.00;0.00;;;2.00;80.50;;;;;;5040853;28;20467;-80
2022/12/19 02:02:59;;;;;;;2.42;2.22;;;2.00;80.50;;;;;;5074275;28;20106;-80
2022/12/19 02:05:25;;;;;;;0.68;0.68;;;2.00;80.90;;;;;;5073953;28;20139;-81
2022/12/19 02:07:51;;;;;;;1.55;0.80;;;2.20;82.50;;;;;;5040328;28;20045;-81
2022/12/19 02:10:17;;;;;;;2.13;0.77;;;2.10;80.30;;;;;;5073772;28;20048;-81
2022/12/19 02:12:44;;;;;;;1.13;1.13;;;2.10;81.30;;;;;;5056865;28;20089;-81
2022/12/19 02:15:12;;;;;;;0.30;0.25;;;2.30;80.60;;;;;;5057145;28;20056;-80
2022/12/19 02:17:41;;;;;;;2.35;0.70;;;2.10;81.00;;;;;;5057346;28;20186;-80
2022/12/19 02:20:40;;;;;;;2.50;1.42;;;2.20;80.40;;;;;;5057133;28;20491;-81
2022/12/19 02:23:45;;;;;;;1.80;1.65;;;2.20;84.60;;;;;;5057674;28;20040;-80
2022/12/19 02:26:55;;;;;;;0.50;0.50;;;2.20;85.80;;;;;;5048970;28;20091;-80
2022/12/19 02:29:30;;;;;;;5.10;1.65;;;2.20;88.80;;;;;;5057511;28;20506;-81
2022/12/19 02:32:19;;;;;;;0.20;0.20;;;2.30;91.00;;;;;;5073307;28;20557;-81
2022/12/19 02:35:18;;;;;;;2.83;1.08;;;2.10;91.70;;;;;;5073234;28;20056;-81
2022/12/19 02:37:49;;;;;;;0.57;0.57;;;2.10;93.90;;;;;;5073462;28;20408;-78
2022/12/19 02:40:33;;;;;;;0.20;0.20;;;2.10;95.00;;;;;;5073571;28;20059;-78
2022/12/19 02:43:01;;;;;;;1.60;1.33;;;2.10;97.50;;;;;;5056688;28;20484;-80
2022/12/19 02:45:32;;;;;;;0.47;0.43;;;2.10;98.00;;;;;;5073181;28;20063;-78
2022/12/19 02:48:00;;;;;;;1.35;1.05;;;2.10;98.20;;;;;;5073000;28;20102;-78
2022/12/19 02:50:25;;;;;;;2.28;2.10;;;2.10;99.50;;;;;;5056233;28;20053;-78
2022/12/19 02:52:51;;;;;;;5.05;0.85;;;2.10;99.90;;;;;;5056125;28;20093;-78
2022/12/19 02:55:23;;;;;;;0.20;0.20;;;2.10;99.90;;;;;;5055767;28;20102;-79
2022/12/19 02:58:13;;;;;;;2.10;2.00;;;2.10;99.90;;;;;;5073018;28;20114;-79
2022/12/19 03:00:58;;;;;;;0.85;0.38;;;2.10;99.90;;;;;;5056394;28;20052;-79
2022/12/19 03:03:58;;;;;;;0.10;0.10;;;2.10;99.90;;;;;;5072676;28;20048;-79
2022/12/19 03:06:30;;;;;;;0.60;0.45;;;2.10;99.90;;;;;;5056016;28;20067;-79
2022/12/19 03:09:28;;;;;;;0.15;0.08;;;2.10;99.90;;;;;;5056788;28;20443;-79
2022/12/19 03:12:03;;;;;;;5.63;1.95;;;2.20;99.90;;;;;;5012336;28;20539;-79
2022/12/19 03:14:31;;;;;;;0.20;0.20;;;2.20;99.90;;;;;;5055846;28;20053;-79
2022/12/19 03:17:05;;;;;;;2.10;1.05;;;2.20;99.90;;;;;;5055858;28;20128;-80
2022/12/19 03:19:31;;;;;;;0.40;0.40;;;2.20;99.90;;;;;;5055930;28;20076;-79
2022/12/19 03:21:57;;;;;;;6.53;1.05;;;2.30;99.90;;;;;;5039619;28;20131;-80
2022/12/19 03:24:23;;;;;;;0.50;0.47;;;2.40;99.90;;;;;;5039073;28;20580;-80
2022/12/19 03:26:58;;;;;;;2.13;2.03;;;2.40;99.90;;;;;;5072364;28;20131;-79
2022/12/19 03:29:28;;;;;;;;;;;2.40;99.90;;;;;;5056237;28;20412;-80
2022/12/19 03:31:55;;;;;;;7.22;1.08;;;2.40;99.90;;;;;;5055384;28;20364;-80
2022/12/19 03:34:27;;;;;;;0.50;0.43;;;2.40;99.90;;;;;;5039444;28;20481;-80
2022/12/19 03:36:57;;;;;;;0.60;0.60;;;2.50;99.90;;;;;;5072795;28;20048;-79
2022/12/19 03:39:25;;;;;;;0.50;0.50;;;2.50;99.90;;;;;;5072470;28;20052;-79
2022/12/19 03:44:40;;;;;;;1.02;0.65;;;2.60;99.90;;;;;;5072615;28;20059;-79
2022/12/19 03:47:16;;;;;;;5.63;1.17;;;2.70;99.90;;;;;;5072629;28;20076;-79
2022/12/19 03:49:42;;;;;;;1.45;1.08;;;2.70;99.90;;;;;;5072650;28;20488;-79
2022/12/19 03:52:14;;;;;;;1.05;1.02;;;2.70;99.90;;;;;;5038966;28;20049;-79
2022/12/19 03:54:45;;;;;;;1.67;1.02;;;2.70;99.90;;;;;;5071816;28;20150;-80
2022/12/19 03:57:18;;;;;;;2.83;1.08;;;2.90;99.90;;;;;;5072509;28;20045;-79
2022/12/19 03:59:48;;;;;;;2.75;1.45;;;2.70;99.90;;;;;;5055609;28;20040;-79
2022/12/19 04:02:16;;;;;;;1.50;1.40;;;2.80;99.90;;;;;;5055706;28;20121;-80
2022/12/19 04:04:45;;;;;;;0.43;0.43;;;2.80;99.90;;;;;;5055544;28;20049;-80
2022/12/19 04:07:13;;;;;;;0.73;0.40;;;2.80;99.90;;;;;;5088864;28;20049;-80
2022/12/19 04:09:42;;;;;;;0.25;0.20;;;2.80;99.90;;;;;;5055580;28;20044;-79
2022/12/19 04:12:13;;;;;;;0.88;0.88;;;2.80;99.90;;;;;;5072161;28;20154;-80
2022/12/19 04:14:39;;;;;;;1.00;1.00;;;2.80;99.90;;;;;;5072128;28;20041;-80
2022/12/19 04:17:08;;;;;;;1.00;0.93;;;2.80;99.90;;;;;;5075981;28;20459;-80
2022/12/19 04:19:46;;;;;;;1.73;0.57;;;2.80;99.90;;;;;;5075751;28;20186;-79
2022/12/19 04:22:20;;;;;;;10.77;1.88;;;2.90;99.90;;;;;;5059429;28;20074;-80
2022/12/19 04:24:48;;;;;;;1.10;0.67;;;2.90;99.90;;;;;;5075367;28;20048;-80
2022/12/19 04:27:15;;;;;;;1.17;1.17;;;2.90;99.90;;;;;;5059302;28;20056;-80
2022/12/19 04:29:42;;;;;;;0.75;0.75;;;2.90;99.90;;;;;;5058951;28;20060;-80
2022/12/19 04:32:09;;;;;;;1.15;1.13;;;2.90;99.90;;;;;;5075744;28;20159;-80
2022/12/19 04:34:35;;;;;;;1.40;0.80;;;3.00;99.90;;;;;;5075486;28;20049;-81
2022/12/19 04:37:01;;;;;;;10.65;0.57;;;3.00;99.90;;;;;;5042536;28;20040;-80
2022/12/19 04:39:27;;;;;;;0.77;0.77;;;3.00;99.90;;;;;;5058958;28;20447;-81
2022/12/19 04:41:56;;;;;;;0.80;0.80;;;3.00;99.90;;;;;;5059075;28;20049;-80
2022/12/19 04:44:21;;;;;;;1.73;1.00;;;3.00;99.90;;;;;;5042889;28;20044;-80
2022/12/19 04:46:47;;;;;;;1.23;0.70;;;3.00;99.90;;;;;;5075514;28;20041;-80
2022/12/19 04:49:13;;;;;;;2.33;1.15;;;3.00;99.90;;;;;;5042440;28;20090;-80
2022/12/19 04:51:38;;;;;;;1.63;1.52;;;3.10;99.90;;;;;;5042192;28;20040;-79
2022/12/19 04:54:04;;;;;;;1.63;0.85;;;3.10;99.90;;;;;;5075044;28;20055;-79
2022/12/19 04:56:30;;;;;;;0.85;0.77;;;3.20;99.90;;;;;;5058050;28;20081;-79
2022/12/19 04:58:57;;;;;;;4.18;1.55;;;3.20;99.90;;;;;;5058427;28;20082;-79
2022/12/19 05:01:23;;;;;;;1.80;1.65;;;3.20;99.90;;;;;;5075222;28;20055;-79
2022/12/19 05:03:48;;;;;;;0.35;0.35;;;3.30;99.90;;;;;;5041859;28;20048;-79
2022/12/19 05:06:14;;;;;;;1.65;1.48;;;3.30;99.90;;;;;;5075229;28;20041;-79
2022/12/19 05:08:41;;;;;;;0.98;0.85;;;3.50;99.90;;;;;;5058438;28;20495;-78
2022/12/19 05:11:13;;;;;;;1.67;1.23;;;3.40;99.90;;;;;;5058376;28;20053;-79
2022/12/19 05:13:38;;;;;;;1.30;1.20;;;3.40;99.90;;;;;;5074735;28;20040;-79
2022/12/19 05:16:07;;;;;;;1.00;0.82;;;3.40;99.90;;;;;;5075218;28;20059;-80
2022/12/19 05:18:33;;;;;;;2.83;1.27;;;3.40;99.90;;;;;;5074202;28;20041;-79
2022/12/19 05:20:59;;;;;;;0.60;0.17;;;3.50;99.90;;;;;;5058337;28;20055;-79
2022/12/19 05:23:25;;;;;;;0.98;0.82;;;3.60;99.90;;;;;;5058254;28;20075;-78
2022/12/19 05:25:51;;;;;;;0.10;0.10;;;3.60;99.90;;;;;;5073433;28;20084;-78
2022/12/19 05:28:17;;;;;;;0.47;0.47;;;3.60;99.90;;;;;;5074585;28;20041;-79
2022/12/19 05:30:44;;;;;;;0.75;0.75;;;3.70;99.90;;;;;;5041465;28;20091;-78
2022/12/19 05:33:10;;;;;;;1.08;0.88;;;3.70;99.90;;;;;;5074232;28;20049;-78
2022/12/19 05:35:36;;;;;;;0.77;0.77;;;3.70;99.90;;;;;;5074605;28;20040;-78
2022/12/19 05:38:03;;;;;;;0.95;0.77;;;3.70;99.90;;;;;;5057577;28;20480;-79
2022/12/19 05:40:29;;;;;;;0.80;0.73;;;3.80;99.90;;;;;;5057703;28;20080;-78
2022/12/19 05:42:54;;;;;;;2.45;0.98;;;3.80;99.90;;;;;;5074293;28;20828;-78
2022/12/19 05:45:21;;;;;;;1.38;1.35;;;3.90;99.90;;;;;;5057790;28;20050;-78
2022/12/19 05:47:47;;;;;;;0.40;0.25;;;3.90;99.90;;;;;;5074406;28;20047;-79
2022/12/19 05:50:16;;;;;;;0.65;0.65;;;3.90;99.90;;;;;;5057542;28;20044;-79
2022/12/19 05:52:43;;;;;;;0.98;0.70;;;3.90;99.90;;;;;;5074022;28;20105;-79
2022/12/19 05:55:09;;;;;;;2.80;0.35;;;3.90;99.90;;;;;;5056854;28;20131;-79
2022/12/19 05:57:36;;;;;;;0.40;0.40;;;4.00;99.90;;;;;;5073872;28;20071;-78
2022/12/19 06:00:03;;;;;;;0.20;0.08;;;4.00;99.90;;;;;;5057513;28;20051;-78
2022/12/19 06:02:32;;;;;;;4.05;1.15;;;4.00;99.90;;;;;;5040844;28;20485;-78
2022/12/19 06:05:00;;;;;;;2.60;1.17;;;4.10;99.90;;;;;;5074031;28;20060;-79
2022/12/19 06:07:26;;;;;;;0.20;0.20;;;4.10;99.90;;;;;;5057133;28;20397;-79
2022/12/19 06:09:52;;;;;;;0.28;0.28;;;4.20;99.90;;;;;;5057104;28;20060;-79
2022/12/19 06:12:17;;;;;;;0.90;0.43;;;4.30;99.90;;;;;;5057230;28;20056;-79
2022/12/19 06:14:43;;;;;;;0.40;0.40;;;4.20;99.90;;;;;;5067300;28;20033;-80
2022/12/19 06:17:09;;;;;;;3.10;0.30;;;4.30;99.90;;;;;;5063115;28;20101;-79
2022/12/19 06:19:34;;;;;;;1.45;0.85;;;4.20;99.90;;;;;;5057021;28;20037;-80
2022/12/19 06:22:00;;;;;;;2.65;1.02;;;4.30;99.90;;;;;;5040213;28;20059;-79
2022/12/19 06:24:26;;;;;;;0.47;0.38;;;4.30;99.90;;;;;;5073339;28;20051;-79
2022/12/19 06:26:51;;;;;;;0.85;0.30;;;4.30;99.90;;;;;;5056379;28;20045;-79
2022/12/19 06:29:17;;;;;;;5.15;0.57;;;4.40;99.90;;;;;;5040902;28;20094;-79
2022/12/19 06:31:43;;;;;;;1.45;0.75;;;4.40;99.90;;;;;;5073535;28;20059;-79
2022/12/19 06:34:10;;;;;;;1.55;0.80;;;4.40;99.90;;;;;;5072941;28;20053;-79
2022/12/19 06:36:36;;;;;;;0.55;0.52;;;4.40;99.90;;;;;;5040164;28;20184;-79
2022/12/19 06:39:03;;;;;;;0.28;0.13;;;4.40;99.90;;;;;;5055848;28;20048;-79
2022/12/19 06:44:15;;;;;;;0.17;0.17;;;4.50;99.90;;;;;;5059490;28;20131;-79
2022/12/19 06:46:41;;;;;;;0.60;0.60;;;4.40;99.90;;;;;;5072943;28;20565;-79
2022/12/19 06:49:07;;;;;;;0.70;0.30;;;4.40;99.90;;;;;;5073217;28;20044;-80
2022/12/19 06:51:33;;;;;;;0.20;0.20;;;4.40;99.90;;;;;;5072994;28;20094;-78
2022/12/19 06:53:59;;;;;;;0.30;0.10;;;4.40;99.90;;;;;;5050741;28;20044;-79
2022/12/19 06:56:25;;;;;;;0.93;0.75;;;4.50;99.90;;;;;;5076007;28;20040;-80
2022/12/19 06:58:50;;;;;;;1.75;0.75;;;4.60;99.90;;;;;;5076266;28;20081;-80
2022/12/19 07:01:35;;;;;;;0.28;0.28;;;4.50;99.90;;;;;;5084203;28;20039;-80
2022/12/19 07:04:01;;;;;;;0.10;0.10;;;4.40;99.90;;;;;;5100855;28;20051;-80
2022/12/19 07:06:27;;;;;;;1.45;1.23;;;4.40;99.90;;;;;;5067199;28;20044;-80
2022/12/19 07:08:53;;;;;;;1.52;1.25;;;4.50;99.90;;;;;;5104410;28;20132;-80
2022/12/19 07:11:18;;;;;;;1.65;1.13;;;4.60;99.90;;;;;;5074234;28;20056;-80
2022/12/19 07:13:44;;;;;;;0.45;0.45;;;4.60;99.90;;;;;;5037603;28;20044;-80
2022/12/19 07:16:10;;;;;;;0.40;0.10;;;4.50;99.90;;;;;;5072737;28;20037;-80
2022/12/19 07:18:38;;;;;;;1.05;0.82;;;4.50;99.90;;;;;;5072483;28;20045;-80
2022/12/19 07:21:06;;;;;;;1.45;1.30;;;4.60;99.90;;;;;;5055945;28;20559;-80
2022/12/19 07:23:34;;;;;;;0.45;0.17;;;4.60;99.90;;;;;;5056144;28;20052;-80
2022/12/19 07:26:00;;;;;;;4.00;1.95;;;4.60;99.90;;;;;;5071962;28;20099;-80
2022/12/19 07:28:26;;;;;;;0.80;0.77;;;4.60;99.90;;;;;;5056041;28;20080;-80
2022/12/19 07:30:52;;;;;;;0.68;0.68;;;4.60;99.90;;;;;;5072566;28;20045;-80
2022/12/19 07:33:18;;;;;;;0.35;0.35;;;4.60;99.90;;;;;;5055199;28;20436;-80
2022/12/19 07:35:43;;;;;;;0.80;0.43;;;4.70;99.90;;;;;;5072460;28;20092;-80
2022/12/19 07:38:09;;;;;;;0.85;0.38;;;4.70;99.90;;;;;;5072689;28;20037;-80
2022/12/19 07:40:35;;;;;;;0.80;0.68;;;4.80;99.90;;;;;;5055811;28;20099;-80
2022/12/19 07:43:02;;;;;;;0.68;0.68;;;4.80;99.90;;;;;;5072321;28;20048;-80
2022/12/19 07:45:29;;;;;;;0.98;0.65;;;4.70;99.90;;;;;;5055408;28;20074;-79
2022/12/19 07:47:58;;;;;;;0.17;0.17;;;4.80;99.90;;;;;;5102765;28;20040;-79
2022/12/19 07:50:24;;;;;;;0.57;0.45;;;4.80;99.90;;;;;;5098134;28;20496;-79
2022/12/19 07:52:49;;;;;;;1.92;0.75;;;4.80;99.90;;;;;;5083598;28;20028;-79
2022/12/19 07:55:15;;;;;;;0.25;0.10;;;4.80;99.90;;;;;;5103103;28;20453;-79
2022/12/19 07:57:41;;;;;;;0.32;0.30;;;4.80;99.90;;;;;;5096311;28;20047;-79
2022/12/19 08:00:07;;;;;;;0.35;0.35;;;4.90;99.90;;;;;;5079796;28;20124;-79
2022/12/19 08:02:33;;;;;;;3.20;0.35;;;4.90;99.90;;;;;;5096291;28;20044;-79
2022/12/19 08:04:58;;;;;;;3.53;0.75;;;4.90;99.90;;;;;;5079697;28;20040;-79
2022/12/19 08:07:24;;;;;;;0.63;0.43;;;4.90;99.90;;;;;;5079821;28;20051;-79
2022/12/19 08:09:50;;;;;;;0.10;0.10;;;5.00;99.90;;;;;;5096610;28;20097;-79
2022/12/19 08:12:15;;;;;;;0.43;0.22;;;5.00;99.90;;;;;;5059330;28;20484;-79
2022/12/19 08:14:41;;;;;;;1.45;0.45;;;5.10;99.90;;;;;;5042578;28;20144;-79
2022/12/19 08:17:08;;;;;;;0.40;0.10;;;5.10;99.90;;;;;;5059222;28;20040;-79
2022/12/19 08:19:33;;;;;;;0.43;0.05;;;5.00;99.90;;;;;;5093353;28;20577;-79
2022/12/19 08:21:59;;;;;;;0.35;0.32;;;5.20;99.90;;;;;;5051908;28;20052;-79
2022/12/19 08:24:25;;;;;;;1.60;0.40;;;5.20;99.90;;;;;;5093634;28;20431;-78
2022/12/19 08:26:50;;;;;;;0.40;0.40;;;5.20;99.90;;;;;;5082030;28;20047;-79
2022/12/19 08:29:16;;;;;;;0.10;0.10;;;5.20;99.90;;;;;;5090074;28;20044;-78
2022/12/19 08:31:42;;;;;;;0.28;0.28;;;5.30;99.90;;;;;;5105562;28;20043;-79
2022/12/19 08:34:07;;;;;;;1.75;1.10;;;5.30;99.90;;;;;;5091981;28;20048;-79
2022/12/19 08:36:33;;;;;;;0.47;0.47;;;5.30;99.90;;;;;;5099032;28;20092;-78
2022/12/19 08:38:59;;;;;;;0.25;0.13;;;5.40;99.90;;;;;;5082205;28;20130;-79
2022/12/19 08:41:24;;;;;;;1.08;0.93;;;5.40;99.90;;;;;;5099241;28;20044;-80
2022/12/19 08:43:52;;;;;;;0.60;0.45;;;5.40;99.90;;;;;;5115868;28;20150;-79
2022/12/19 08:46:18;;;;;;;0.45;0.45;;;5.40;99.90;;;;;;5099244;28;20047;-80
2022/12/19 08:48:44;;;;;;;0.20;0.17;;;5.50;99.90;;;;;;5099216;28;20097;-79
2022/12/19 08:51:11;;;;;;;0.20;0.20;;;5.50;99.90;;;;;;5081979;28;20067;-80
2022/12/19 08:53:39;;;;;;;0.20;0.20;;;5.50;99.90;;;;;;5098859;28;20077;-80
2022/12/19 08:56:09;;;;;;;0.13;0.10;;;5.60;99.90;;;;;;5115658;28;20192;-80
2022/12/19 08:58:35;;;;;;;0.63;0.32;;;5.60;99.90;;;;;;5115846;28;20044;-80
2022/12/19 09:01:09;;;;;;;0.30;0.30;;;5.70;99.90;;;;;;5097947;28;20399;-80
2022/12/19 09:03:35;;;;;;;0.68;0.68;;;5.70;99.90;;;;;;5115949;28;20052;-80
2022/12/19 09:06:04;;;;;;;1.58;0.47;;;5.70;99.90;;;;;;5115733;28;20096;-80
2022/12/19 09:08:31;;;;;;;0.65;0.65;;;5.80;99.90;;;;;;5098822;28;20502;-80
2022/12/19 09:10:58;;;;;;;0.20;0.20;;;5.80;99.90;;;;;;5098770;28;20051;-81
2022/12/19 09:13:25;;;;;;;0.17;0.17;;;5.80;99.90;;;;;;5098362;28;20411;-81
2022/12/19 09:16:02;;;;;;;1.60;0.90;;;5.90;99.90;;;;;;5115250;28;20558;-81
2022/12/19 09:18:28;;;;;;;8.07;0.43;;;5.90;99.90;;;;;;5115717;28;20052;-81
2022/12/19 09:20:55;;;;;;;0.63;0.15;;;6.00;99.90;;;;;;5098335;28;20487;-80
2022/12/19 09:23:22;;;;;;;1.30;0.85;;;5.90;99.90;;;;;;5115573;28;20511;-80
2022/12/19 09:25:47;;;;;;;1.63;1.02;;;5.90;99.90;;;;;;5097799;28;20131;-80
2022/12/19 09:28:14;;;;;;;2.05;0.40;;;6.00;99.90;;;;;;5115390;28;20086;-80
2022/12/19 09:30:40;;;;;;;0.20;0.20;;;6.00;99.90;;;;;;5115352;28;20460;-79
2022/12/19 09:33:05;;;;;;;0.45;0.45;;;6.10;99.90;;;;;;5097939;28;20060;-80
2022/12/19 09:35:31;;;;;;;0.88;0.68;;;6.10;99.90;;;;;;5115062;28;20047;-80
2022/12/19 09:37:57;;;;;;;1.48;0.45;;;6.10;99.90;;;;;;5081153;28;20050;-80
2022/12/19 09:40:23;;;;;;;0.13;0.13;;;6.00;99.90;;;;;;5081149;28;20050;-81
2022/12/19 09:42:49;;;;;;;0.38;0.38;;;6.20;99.90;;;;;;5064600;28;20044;-80
2022/12/19 09:45:47;;;;;;;0.10;0.10;;;6.20;99.90;;;;;;5115168;28;20059;-80
2022/12/19 09:48:16;;;;;;;0.73;0.60;;;6.20;99.90;;;;;;5097949;28;20047;-80
2022/12/19 09:51:33;;;;;;;1.17;1.08;;;6.20;99.90;;;;;;5097862;28;20078;-80
2022/12/19 09:54:06;;;;;;;0.55;0.38;;;6.20;99.90;;;;;;5000211;28;20048;-80
2022/12/19 09:56:36;;;;;;;2.38;1.25;;;6.30;99.90;;;;;;5016640;28;20070;-80
2022/12/19 09:59:15;;;;;;;0.05;0.05;;;6.30;99.90;;;;;;5060268;28;20090;-81
2022/12/19 10:02:08;;;;;;;0.73;0.52;;;6.30;99.90;;;;;;5094631;28;20127;-80
2022/12/19 10:04:35;;;;;;;0.20;0.20;;;6.40;99.90;;;;;;5067420;28;20102;-80
2022/12/19 10:07:01;;;;;;;0.00;0.00;;;6.40;99.90;;;;;;5078574;28;20048;-80
2022/12/19 10:09:33;;;;;;;0.30;0.30;;;6.50;99.90;;;;;;5057132;28;20047;-80
2022/12/19 10:12:08;;;;;;;0.00;0.00;;;6.50;99.90;;;;;;5090891;28;20113;-80
2022/12/19 10:14:52;;;;;;;0.38;0.03;;;6.50;99.90;;;;;;5056338;28;20040;-80
2022/12/19 10:17:32;;;;;;;4.13;0.10;;;6.50;99.90;;;;;;5057200;28;20067;-80
2022/12/19 10:20:11;;;;;;;0.10;0.10;;;6.60;99.90;;;;;;5073746;28;20052;-79
2022/12/19 10:23:03;;;;;;;0.70;0.40;;;6.60;99.90;;;;;;5090786;28;20049;-80
2022/12/19 10:25:53;;;;;;;0.45;0.45;;;6.60;99.90;;;;;;5090238;28;20070;-79
2022/12/19 10:28:43;;;;;;;0.00;0.00;;;6.70;99.90;;;;;;5090456;28;20110;-79
2022/12/19 10:31:43;;;;;;;1.13;0.47;;;6.70;99.90;;;;;;5073410;28;20049;-79
2022/12/19 10:34:19;;;;;;;0.65;0.45;;;6.70;99.90;;;;;;5072972;28;20063;-79
2022/12/19 10:36:52;;;;;;;1.10;0.32;;;6.70;99.90;;;;;;5090276;28;20089;-79
2022/12/19 10:39:32;;;;;;;0.15;0.03;;;6.80;99.90;;;;;;5057496;28;20047;-79
2022/12/19 10:42:23;;;;;;;1.27;0.38;;;6.80;99.90;;;;;;5074218;28;20041;-79
2022/12/19 10:44:52;;;;;;;0.30;0.25;;;6.80;99.90;;;;;;5091229;28;20052;-79
2022/12/19 10:47:18;;;;;;;0.00;0.00;;;6.80;99.90;;;;;;5073221;28;20048;-80
2022/12/19 10:49:44;;;;;;;0.10;0.10;;;6.90;99.90;;;;;;5056735;28;20050;-79
2022/12/19 10:52:10;;;;;;;1.05;0.50;;;6.90;99.90;;;;;;5073028;28;20048;-80
2022/12/19 10:54:36;;;;;;;0.30;0.30;;;6.80;99.90;;;;;;5072709;28;20040;-80
2022/12/19 10:57:21;;;;;;;0.47;0.47;;;6.90;99.90;;;;;;5072490;28;20132;-80
2022/12/19 11:00:00;;;;;;;0.00;0.00;;;6.90;99.90;;;;;;5072978;28;20052;-81
2022/12/19 11:02:37;;;;;;;0.00;0.00;;;7.00;99.90;;;;;;5089893;28;20461;-81
2022/12/19 11:05:18;;;;;;;0.65;0.28;;;6.90;99.90;;;;;;5056349;28;20044;-81
2022/12/19 11:08:18;;;;;;;0.65;0.55;;;7.00;99.90;;;;;;5056305;28;20067;-80
2022/12/19 11:10:50;;;;;;;0.82;0.30;;;7.00;99.90;;;;;;5072725;28;20499;-80
2022/12/19 11:13:37;;;;;;;1.33;1.23;;;7.00;99.90;;;;;;5055905;28;20094;-80
2022/12/19 11:16:06;;;;;;;0.22;0.22;;;7.00;99.90;;;;;;5055932;28;20036;-80
2022/12/19 11:18:39;;;;;;;0.32;0.20;;;7.00;99.90;;;;;;5089448;28;20056;-81
2022/12/19 11:21:24;;;;;;;2.67;0.77;;;7.00;99.90;;;;;;5072750;28;20049;-80
2022/12/19 11:23:59;;;;;;;0.80;0.20;;;7.00;99.90;;;;;;5055716;28;20062;-82
2022/12/19 11:26:29;;;;;;;0.15;0.10;;;7.10;99.90;;;;;;5076996;28;20040;-81
2022/12/19 11:29:00;;;;;;;2.67;0.20;;;7.10;99.90;;;;;;5075850;28;20404;-81
2022/12/19 11:31:28;;;;;;;0.00;0.00;;;7.10;99.90;;;;;;5075764;28;20059;-80
2022/12/19 11:34:01;;;;;;;0.47;0.35;;;7.10;99.90;;;;;;5092030;28;20055;-80
2022/12/19 11:36:35;;;;;;;0.82;0.22;;;7.10;99.90;;;;;;5104515;28;20373;-80
2022/12/19 11:39:03;;;;;;;0.00;0.00;;;7.20;99.90;;;;;;5113249;28;20044;-80
2022/12/19 11:41:34;;;;;;;0.77;0.30;;;7.10;99.90;;;;;;5112786;28;20488;-81
2022/12/19 11:44:16;;;;;;;0.00;0.00;;;7.20;99.90;;;;;;5096114;28;20040;-81
2022/12/19 11:46:48;;;;;;;0.45;0.32;;;7.20;99.90;;;;;;5096048;28;20098;-81
2022/12/19 11:49:20;;;;;;;1.25;0.32;;;7.20;99.90;;;;;;5096021;28;20052;-81
2022/12/19 11:51:58;;;;;;;0.55;0.55;;;7.20;99.90;;;;;;5095858;28;20047;-81
2022/12/19 11:54:41;;;;;;;0.00;0.00;;;7.20;99.90;;;;;;5095913;28;20040;-81
2022/12/19 11:57:10;;;;;;;1.13;0.75;;;7.20;99.90;;;;;;5112596;28;20051;-81
2022/12/19 11:59:38;;;;;;;3.00;0.13;;;7.30;99.90;;;;;;5095849;28;20101;-81
2022/12/19 12:02:23;;;;;;;0.00;0.00;;;7.30;99.90;;;;;;5112735;28;20051;-81
2022/12/19 12:05:18;;;;;;;0.15;0.15;;;7.30;99.90;;;;;;5096108;28;20039;-81
2022/12/19 12:07:53;;;;;;;0.32;0.32;;;7.40;99.90;;;;;;5096059;28;20051;-80
2022/12/19 12:10:20;;;;;;;1.50;0.52;;;7.40;99.90;;;;;;5095868;28;20055;-80
2022/12/19 12:13:02;;;;;;;0.43;0.35;;;7.40;99.90;;;;;;5112624;28;20062;-80
2022/12/19 12:15:47;;;;;;;0.35;0.20;;;7.40;99.90;;;;;;5095939;28;20051;-80
2022/12/19 12:18:38;;;;;;;1.52;0.70;;;7.50;99.90;;;;;;5112827;28;20052;-80
2022/12/19 12:21:19;;;;;;;0.45;0.10;;;7.50;99.90;;;;;;5112499;28;20083;-80
2022/12/19 12:23:57;;;;;;;0.00;0.00;;;7.50;99.90;;;;;;5112751;28;20046;-80
2022/12/19 12:26:31;;;;;;;1.98;0.00;;;7.60;99.90;;;;;;5095146;28;20404;-81
2022/12/19 12:29:22;;;;;;;0.13;0.13;;;7.60;99.90;;;;;;5112776;28;20407;-80
2022/12/19 12:32:02;;;;;;;0.43;0.28;;;7.60;99.90;;;;;;5112293;28;20075;-80
2022/12/19 12:34:47;;;;;;;0.10;0.00;;;7.70;99.90;;;;;;5112812;28;20463;-80
2022/12/19 12:37:28;;;;;;;0.57;0.20;;;7.70;99.90;;;;;;5115106;28;20042;-83
2022/12/19 12:40:08;;;;;;;0.00;0.00;;;7.70;99.90;;;;;;5116388;28;20043;-83
2022/12/19 12:43:14;;;;;;;0.15;0.10;;;7.60;99.90;;;;;;5099354;28;20087;-80
2022/12/19 12:45:45;;;;;;;0.82;0.82;;;7.70;99.90;;;;;;5114803;28;20052;-80
2022/12/19 12:48:36;;;;;;;0.20;0.13;;;7.70;99.90;;;;;;5116322;28;20047;-80
2022/12/19 12:51:04;;;;;;;0.00;0.00;;;7.70;99.90;;;;;;5099349;28;20094;-80
2022/12/19 12:53:36;;;;;;;0.38;0.20;;;7.70;99.90;;;;;;5098949;28;20171;-80
2022/12/19 12:56:05;;;;;;;0.45;0.08;;;7.70;99.90;;;;;;5115607;28;20457;-80
2022/12/19 12:59:01;;;;;;;0.00;0.00;;;7.70;99.90;;;;;;5115980;28;20044;-79
2022/12/19 13:01:38;;;;;;;0.00;0.00;;;7.70;99.90;;;;;;5115913;28;20542;-82
2022/12/19 13:04:10;;;;;;;0.00;0.00;;;7.80;99.90;;;;;;5115754;28;20465;-80
2022/12/19 13:06:37;;;;;;;0.17;0.17;;;7.70;99.90;;;;;;5098905;28;20052;-80
2022/12/19 13:09:15;;;;;;;0.20;0.20;;;7.80;99.90;;;;;;5098545;28;20387;-80
2022/12/19 13:14:38;;;;;;;0.00;0.00;;;7.80;99.90;;;;;;5115486;28;20043;-80
2022/12/19 13:17:09;;;;;;;0.00;0.00;;;7.80;99.90;;;;;;5098636;28;20142;-80
2022/12/19 13:19:51;;;;;;;0.10;0.10;;;7.80;99.90;;;;;;5115469;28;20043;-80
2022/12/19 13:22:36;;;;;;;1.35;0.10;;;7.80;99.90;;;;;;5116037;28;20081;-80
2022/12/19 13:25:21;;;;;;;;;;;7.80;99.90;;;;;;5098539;28;20043;-80
2022/12/19 13:27:48;;;;;;;0.00;0.00;;;7.80;99.90;;;;;;5097939;28;19958;-80